Lubbock, TX

11:54 PM CDT on September 04, 2015 (GMT -0500)
WT_Meso | | Change Station
CLOSE
Current Station
Personal Weather Station
Location: Lubbock, TX
Elevation: 3231 ft
Nearby Weather Stations

Elev 3231 ft 33.60 °N, 101.90 °W | Updated 19 minutes ago

Mostly Cloudy
Mostly Cloudy
79 °F
Feels Like 79 °F
N
8
Wind Variable Wind from SE
Gusts 13.0 mph

Today
High -- | Low -- °F
--% Chance of Precip.
Yesterday
High -- | Low -- °F
Precip. -- in
7:23 AM 8:08 PM
Waning Gibbous, 52% visible
Pressure 29.85 in
Visibility 10.0 miles
Clouds Mostly Cloudy 30000 ft
Heat Index 79 °F
Dew Point 53 °F
Humidity 42%
Rainfall in
Snow Depth Not available.
UV 0 out of 12
Pollen 9.90 out of 12
Air Quality Not available.
Flu Activity Not available.
METAR KLBB 050353Z 13006KT 10SM BKN300 24/13 A3001 RMK AO2 SLP108 BKN LYR THN T02390128
Pressure 29.85 in
Visibility 10.0 miles
Clouds Mostly Cloudy 30000 ft
Heat Index 79 °F
Dew Point 53 °F
Humidity 42%
Rainfall in
Snow Depth Not available.
UV 0 out of 12
Pollen 9.90 out of 12
Air Quality Not available.
Flu Activity Not available.
METAR KLBB 050353Z 13006KT 10SM BKN300 24/13 A3001 RMK AO2 SLP108 BKN LYR THN T02390128

10-Day Weather Forecast

×

Almanac

Astronomy

Sep. 04, 2015 Rise Set
Actual Time
Civil Twilight
Nautical Twilight
Astronomical Twilight
Moon
Length of Visible Light
Length of Day
Tomorrow will be .
, % of the Moon is Illuminated

Today's Extremes

State Highs State Lows

Community

WunderPhotos

Upload Photos

1,852,426 photos uploaded!

WunderBlogs® & News

Nearby

Air Quality

  Air Quality AQ Index Pollutant
Not available.

Snow Depth

Station Depth Elevation

Earthquake Activity

City Distance Mag. Time & Date
Minimum magnitude displayed is 2.5.

Coastal Water Temperatures

Place Temperature

Stations

Nearby Weather Stations

Station Location Temp. Windchill Dew Point Humidity Wind Precip. Elev Updated Type